createdAt,value
2023-01-17T00:01:47.565Z,2.15
2023-01-17T00:04:32.990Z,2.21
2023-01-17T00:07:19.216Z,2.10
2023-01-17T00:09:56.051Z,2.22
2023-01-17T00:12:27.644Z,2.21
2023-01-17T00:14:55.568Z,2.19
2023-01-17T00:17:23.319Z,2.25
2023-01-17T00:20:09.048Z,2.16
2023-01-17T00:22:54.437Z,2.20
2023-01-17T00:25:43.209Z,2.07
2023-01-17T00:28:09.923Z,2.16
2023-01-17T00:30:36.613Z,2.12
2023-01-17T00:33:03.569Z,2.11
2023-01-17T00:35:31.675Z,2.10
2023-01-17T00:38:05.640Z,2.12
2023-01-17T00:40:33.190Z,2.12
2023-01-17T00:43:19.114Z,2.08
2023-01-17T00:46:04.646Z,2.19
2023-01-17T00:48:50.553Z,2.13
2023-01-17T00:51:36.193Z,2.24
2023-01-17T00:54:21.720Z,2.24
2023-01-17T00:57:06.973Z,2.25
2023-01-17T00:59:51.961Z,2.21
2023-01-17T01:02:37.449Z,2.24
2023-01-17T01:05:23.170Z,2.29
2023-01-17T01:08:08.566Z,2.38
2023-01-17T01:10:53.518Z,2.40
2023-01-17T01:13:43.668Z,2.45
2023-01-17T01:16:29.911Z,2.39
2023-01-17T01:19:15.776Z,2.46
2023-01-17T01:22:00.931Z,2.47
2023-01-17T01:24:46.428Z,2.47
2023-01-17T01:27:31.783Z,2.53
2023-01-17T01:30:17.157Z,2.54
2023-01-17T01:33:02.379Z,2.53
2023-01-17T01:35:29.337Z,2.57
2023-01-17T01:37:55.870Z,2.59
2023-01-17T01:40:22.540Z,2.56
2023-01-17T01:42:53.933Z,2.60
2023-01-17T01:45:26.480Z,2.67
2023-01-17T01:47:56.811Z,2.70
2023-01-17T01:50:23.526Z,2.63
2023-01-17T01:52:53.797Z,2.65
2023-01-17T01:55:27.915Z,2.62
2023-01-17T01:57:56.971Z,2.63
2023-01-17T02:00:29.832Z,2.62
2023-01-17T02:02:58.641Z,2.62
2023-01-17T02:05:27.037Z,2.69
2023-01-17T02:07:59.373Z,2.71
2023-01-17T02:10:25.931Z,2.76
2023-01-17T02:12:53.801Z,2.70
2023-01-17T02:15:23.500Z,2.70
2023-01-17T02:18:29.101Z,2.71
2023-01-17T02:21:04.180Z,2.72
2023-01-17T02:23:44.233Z,2.77
2023-01-17T02:26:30.838Z,2.73
2023-01-17T02:29:15.519Z,2.86
2023-01-17T02:31:52.526Z,2.69
2023-01-17T02:34:28.002Z,2.82
2023-01-17T02:37:01.900Z,2.77
2023-01-17T02:39:32.978Z,2.79
2023-01-17T02:42:05.723Z,2.74
2023-01-17T02:44:40.814Z,2.77
2023-01-17T02:47:25.487Z,2.84
2023-01-17T02:49:53.889Z,2.78
2023-01-17T02:52:43.869Z,2.83
2023-01-17T02:55:16.969Z,2.75
2023-01-17T02:58:17.208Z,2.75
2023-01-17T03:00:46.855Z,2.68
2023-01-17T03:03:22.044Z,2.81
2023-01-17T03:05:59.920Z,2.71
2023-01-17T03:08:27.448Z,2.74
2023-01-17T03:10:54.197Z,2.74
2023-01-17T03:13:20.768Z,2.67
2023-01-17T03:15:47.421Z,2.63
2023-01-17T03:18:15.640Z,2.72
2023-01-17T03:20:42.475Z,2.72
2023-01-17T03:23:09.186Z,2.68
2023-01-17T03:25:35.663Z,2.70
2023-01-17T03:28:02.300Z,2.79
2023-01-17T03:30:29.030Z,2.81
2023-01-17T03:32:55.557Z,2.77
2023-01-17T03:35:22.315Z,2.74
2023-01-17T03:37:48.977Z,2.76
2023-01-17T03:40:15.430Z,2.75
2023-01-17T03:42:42.658Z,2.71
2023-01-17T03:45:09.836Z,2.73
2023-01-17T03:47:36.416Z,2.73
2023-01-17T03:50:03.712Z,2.73
2023-01-17T03:52:30.492Z,2.72
2023-01-17T03:54:57.036Z,2.82
2023-01-17T03:57:23.598Z,2.72
2023-01-17T03:59:50.370Z,2.74
2023-01-17T04:02:17.424Z,2.77
2023-01-17T04:04:44.002Z,2.78
2023-01-17T04:07:10.558Z,2.74
2023-01-17T04:09:37.099Z,2.74
2023-01-17T04:12:04.073Z,2.84
2023-01-17T04:14:30.711Z,2.84
2023-01-17T04:16:57.319Z,2.87
2023-01-17T04:19:24.030Z,2.78
2023-01-17T04:21:50.631Z,2.70
2023-01-17T04:24:18.141Z,2.64
2023-01-17T04:26:45.089Z,2.66
2023-01-17T04:29:11.798Z,2.77
2023-01-17T04:31:38.413Z,2.80
2023-01-17T04:34:05.013Z,2.84
2023-01-17T04:36:31.672Z,2.76
2023-01-17T04:38:58.172Z,2.76
2023-01-17T04:41:24.810Z,2.74
2023-01-17T04:43:51.391Z,2.71
2023-01-17T04:46:18.006Z,2.77
2023-01-17T04:48:44.577Z,2.65
2023-01-17T04:51:11.209Z,2.67
2023-01-17T04:53:37.697Z,2.60
2023-01-17T04:56:04.569Z,2.62
2023-01-17T04:58:31.371Z,2.65
2023-01-17T05:01:02.074Z,2.66
2023-01-17T05:03:29.513Z,2.70
2023-01-17T05:05:56.094Z,2.66
2023-01-17T05:08:22.567Z,2.62
2023-01-17T05:10:49.299Z,2.65
2023-01-17T05:13:15.911Z,2.59
2023-01-17T05:15:42.454Z,2.59
2023-01-17T05:18:13.500Z,2.59
2023-01-17T05:20:40.170Z,2.61
2023-01-17T05:23:06.684Z,2.59
2023-01-17T05:25:33.658Z,2.53
2023-01-17T05:28:00.530Z,2.53
2023-01-17T05:30:28.358Z,2.53
2023-01-17T05:32:55.711Z,2.49
2023-01-17T05:35:25.239Z,2.43
2023-01-17T05:37:52.112Z,2.47
2023-01-17T05:40:21.234Z,2.49
2023-01-17T05:42:49.610Z,2.41
2023-01-17T05:45:17.874Z,2.38
2023-01-17T05:47:45.277Z,2.42
2023-01-17T05:50:13.588Z,2.42
2023-01-17T05:52:40.741Z,2.35
2023-01-17T05:55:08.523Z,2.38
2023-01-17T05:57:35.466Z,2.37
2023-01-17T06:00:02.134Z,2.27
2023-01-17T06:02:28.855Z,2.23
2023-01-17T06:04:55.688Z,2.15
2023-01-17T06:07:22.176Z,2.10
2023-01-17T06:09:48.717Z,2.12
2023-01-17T06:12:15.413Z,2.05
2023-01-17T06:14:41.838Z,1.94
2023-01-17T06:17:08.470Z,2.06
2023-01-17T06:19:35.052Z,2.05
2023-01-17T06:22:01.545Z,2.02
2023-01-17T06:24:28.183Z,1.95
2023-01-17T06:26:54.834Z,1.92
2023-01-17T06:29:21.293Z,1.96
2023-01-17T06:31:47.873Z,1.92
2023-01-17T06:34:14.642Z,1.84
2023-01-17T06:36:41.078Z,1.77
2023-01-17T06:39:07.687Z,1.82
2023-01-17T06:41:34.378Z,1.87
2023-01-17T06:44:00.913Z,1.81
2023-01-17T06:46:27.724Z,1.78
2023-01-17T06:48:55.035Z,1.85
2023-01-17T06:51:21.585Z,1.88
2023-01-17T06:53:49.358Z,1.92
2023-01-17T06:56:16.399Z,1.91
2023-01-17T06:58:42.921Z,1.87
2023-01-17T07:01:10.838Z,1.93
2023-01-17T07:03:38.209Z,1.93
2023-01-17T07:06:05.478Z,1.99
2023-01-17T07:08:32.748Z,1.99
2023-01-17T07:11:01.501Z,1.99
2023-01-17T07:13:28.585Z,2.05
2023-01-17T07:15:55.310Z,2.08
2023-01-17T07:18:25.150Z,2.06
2023-01-17T07:20:52.579Z,2.05
2023-01-17T07:23:21.029Z,2.04
2023-01-17T07:25:53.784Z,2.01
2023-01-17T07:28:23.955Z,2.00
2023-01-17T07:30:50.508Z,2.10
2023-01-17T07:33:17.508Z,2.02
2023-01-17T07:35:44.741Z,2.07
2023-01-17T07:38:15.482Z,2.06
2023-01-17T07:40:42.725Z,2.04
2023-01-17T07:43:16.614Z,2.16
2023-01-17T07:45:51.044Z,2.19
2023-01-17T07:48:20.010Z,2.28
2023-01-17T07:50:55.599Z,2.29
2023-01-17T07:53:26.210Z,2.30
2023-01-17T07:55:52.986Z,2.29
2023-01-17T07:58:20.563Z,2.38
2023-01-17T08:00:47.565Z,2.47
2023-01-17T08:03:16.794Z,2.49
2023-01-17T08:05:44.724Z,2.59
2023-01-17T08:08:11.484Z,2.60
2023-01-17T08:10:37.990Z,2.58
2023-01-17T08:13:04.637Z,2.62
2023-01-17T08:15:31.397Z,2.67
2023-01-17T08:17:58.594Z,2.76
2023-01-17T08:20:27.643Z,2.79
2023-01-17T08:22:55.900Z,2.87
2023-01-17T08:25:25.400Z,3.01
2023-01-17T08:27:52.579Z,3.09
2023-01-17T08:30:19.568Z,3.32
2023-01-17T08:32:46.090Z,3.35
2023-01-17T08:35:12.804Z,3.53
2023-01-17T08:37:39.572Z,3.71
2023-01-17T08:40:07.177Z,3.83
2023-01-17T08:42:41.084Z,4.06
2023-01-17T08:45:09.073Z,4.42
2023-01-17T08:47:35.948Z,4.52
2023-01-17T08:50:03.948Z,4.65
2023-01-17T08:52:30.657Z,4.88
2023-01-17T08:54:57.487Z,5.02
2023-01-17T08:57:24.191Z,4.96
2023-01-17T08:59:50.830Z,4.73
2023-01-17T09:02:20.444Z,4.45
2023-01-17T09:04:48.231Z,4.09
2023-01-17T09:07:15.824Z,3.98
2023-01-17T09:09:42.490Z,3.85
2023-01-17T09:12:09.330Z,3.67
2023-01-17T09:14:36.081Z,3.57
2023-01-17T09:17:02.633Z,3.73
2023-01-17T09:19:29.452Z,3.65
2023-01-17T09:21:56.165Z,3.58
2023-01-17T09:24:22.756Z,3.63
2023-01-17T09:26:49.554Z,3.69
2023-01-17T09:29:18.747Z,3.65
2023-01-17T09:31:47.344Z,3.63
2023-01-17T09:34:14.572Z,3.61
2023-01-17T09:36:41.796Z,3.65
2023-01-17T09:39:10.057Z,3.68
2023-01-17T09:41:44.686Z,3.70
2023-01-17T09:44:23.557Z,3.67
2023-01-17T09:46:52.182Z,3.74
2023-01-17T09:49:31.255Z,3.65
2023-01-17T09:51:58.285Z,3.73
2023-01-17T09:54:27.669Z,3.76
2023-01-17T09:57:05.204Z,3.61
2023-01-17T09:59:45.651Z,3.57
2023-01-17T10:02:49.907Z,3.58
2023-01-17T10:05:30.818Z,3.70
2023-01-17T10:08:06.498Z,3.58
2023-01-17T10:11:02.691Z,3.68
2023-01-17T10:13:38.150Z,3.63
2023-01-17T10:16:20.490Z,3.73
2023-01-17T10:19:13.330Z,3.75
2023-01-17T10:22:04.196Z,3.78
2023-01-17T10:24:45.922Z,3.75
2023-01-17T10:27:20.461Z,3.72
2023-01-17T10:29:49.173Z,3.70
2023-01-17T10:32:15.958Z,3.70
2023-01-17T10:34:51.524Z,3.72
2023-01-17T10:37:20.746Z,3.80
2023-01-17T10:39:49.405Z,3.84
2023-01-17T10:42:23.662Z,3.93
2023-01-17T10:45:00.434Z,3.99
2023-01-17T10:47:28.698Z,4.01
2023-01-17T10:49:58.402Z,4.00
2023-01-17T10:52:47.897Z,4.01
2023-01-17T10:55:16.462Z,4.07
2023-01-17T10:57:45.006Z,4.01
2023-01-17T11:00:41.999Z,3.99
2023-01-17T11:03:10.871Z,3.91
2023-01-17T11:05:37.833Z,3.91
2023-01-17T11:08:15.750Z,3.92
2023-01-17T11:11:03.369Z,3.98
2023-01-17T11:13:33.620Z,4.01
2023-01-17T11:16:03.277Z,4.00
2023-01-17T11:18:32.512Z,4.06
2023-01-17T11:21:21.380Z,4.01
2023-01-17T11:23:49.675Z,4.09
2023-01-17T11:26:27.989Z,4.12
2023-01-17T11:29:26.631Z,4.18
2023-01-17T11:31:59.057Z,4.13
2023-01-17T11:34:27.324Z,4.16
2023-01-17T11:37:17.715Z,4.17
2023-01-17T11:39:48.004Z,4.19
2023-01-17T11:42:35.512Z,4.25
2023-01-17T11:45:24.764Z,4.25
2023-01-17T11:48:12.687Z,4.34
2023-01-17T11:50:47.832Z,4.43
2023-01-17T11:53:24.647Z,4.35
2023-01-17T11:56:02.433Z,4.25
2023-01-17T11:58:29.453Z,4.35
2023-01-17T12:01:02.386Z,4.34
2023-01-17T12:03:47.605Z,4.31
2023-01-17T12:06:19.864Z,4.32
2023-01-17T12:08:56.044Z,4.28
2023-01-17T12:11:32.048Z,4.27
2023-01-17T12:14:14.726Z,4.28
2023-01-17T12:17:00.293Z,4.17
2023-01-17T12:19:39.066Z,4.14
2023-01-17T12:22:41.040Z,4.09
2023-01-17T12:25:28.730Z,4.03
2023-01-17T12:28:01.395Z,4.09
2023-01-17T12:31:01.488Z,4.10
2023-01-17T12:33:28.063Z,4.11
2023-01-17T12:36:05.510Z,4.11
2023-01-17T12:38:37.265Z,4.13
2023-01-17T12:41:19.727Z,4.14
2023-01-17T12:43:46.497Z,4.09
2023-01-17T12:46:21.547Z,4.13
2023-01-17T12:48:52.897Z,4.26
2023-01-17T12:51:33.108Z,4.42
2023-01-17T12:54:09.004Z,4.46
2023-01-17T12:56:49.338Z,4.46
2023-01-17T12:59:31.167Z,4.40
2023-01-17T13:01:59.291Z,4.39
2023-01-17T13:04:59.481Z,4.42
2023-01-17T13:07:31.943Z,4.37
2023-01-17T13:10:03.794Z,4.38
2023-01-17T13:12:32.964Z,4.42
2023-01-17T13:15:00.252Z,4.55
2023-01-17T13:17:45.279Z,4.67
2023-01-17T13:20:41.068Z,4.90
2023-01-17T13:23:28.854Z,4.94
2023-01-17T13:25:57.416Z,4.97
2023-01-17T13:28:35.172Z,4.95
2023-01-17T13:31:10.619Z,4.99
2023-01-17T13:33:52.355Z,4.95
2023-01-17T13:36:37.559Z,5.34
2023-01-17T13:39:30.201Z,5.62
2023-01-17T13:42:25.062Z,5.50
2023-01-17T13:44:52.233Z,5.76
2023-01-17T13:47:18.921Z,5.58
2023-01-17T13:49:49.308Z,5.41
2023-01-17T13:52:25.164Z,5.11
2023-01-17T13:54:56.517Z,4.93
2023-01-17T13:57:29.377Z,4.81
2023-01-17T13:59:57.651Z,4.78
2023-01-17T14:02:38.437Z,4.79
2023-01-17T14:05:22.946Z,4.74
2023-01-17T14:08:02.470Z,4.65
2023-01-17T14:10:47.718Z,4.57
2023-01-17T14:13:39.875Z,4.51
2023-01-17T14:16:26.941Z,4.54
2023-01-17T14:18:54.613Z,4.54
2023-01-17T14:21:25.424Z,4.42
2023-01-17T14:24:16.741Z,4.25
2023-01-17T14:26:46.225Z,4.19
2023-01-17T14:29:47.169Z,4.08
2023-01-17T14:32:27.039Z,4.13
2023-01-17T14:34:54.328Z,3.99
2023-01-17T14:37:32.702Z,3.96
2023-01-17T14:40:00.848Z,4.03
2023-01-17T14:42:29.641Z,4.04
2023-01-17T14:45:05.073Z,3.94
2023-01-17T14:47:34.360Z,3.79
2023-01-17T14:50:35.660Z,3.73
2023-01-17T14:53:11.163Z,3.76
2023-01-17T14:55:39.161Z,3.74
2023-01-17T14:58:05.704Z,3.62
2023-01-17T15:00:34.975Z,3.62
2023-01-17T15:03:02.783Z,3.55
2023-01-17T15:05:30.257Z,3.51
2023-01-17T15:07:57.927Z,3.40
2023-01-17T15:10:28.302Z,3.38
2023-01-17T15:12:55.860Z,3.40
2023-01-17T15:15:38.313Z,3.41
2023-01-17T15:18:29.510Z,3.40
2023-01-17T15:21:00.272Z,3.30
2023-01-17T15:23:31.551Z,3.27
2023-01-17T15:25:58.351Z,3.33
2023-01-17T15:28:25.083Z,3.37
2023-01-17T15:31:15.026Z,3.35
2023-01-17T15:33:45.176Z,3.32
2023-01-17T15:36:30.067Z,3.28
2023-01-17T15:39:00.454Z,3.23
2023-01-17T15:41:31.501Z,3.22
2023-01-17T15:43:58.743Z,3.06
2023-01-17T15:46:30.512Z,3.00
2023-01-17T15:49:28.937Z,3.00
2023-01-17T15:52:10.398Z,3.07
2023-01-17T15:54:44.347Z,3.01
2023-01-17T15:57:24.748Z,3.05
2023-01-17T15:59:56.382Z,3.12
2023-01-17T16:02:55.862Z,2.92
2023-01-17T16:05:23.134Z,2.85
2023-01-17T16:07:53.007Z,2.91
2023-01-17T16:10:22.399Z,2.95
2023-01-17T16:12:51.424Z,2.87
2023-01-17T16:15:20.279Z,2.90
2023-01-17T16:17:49.162Z,2.88
2023-01-17T16:20:24.989Z,2.92
2023-01-17T16:22:52.361Z,2.78
2023-01-17T16:25:21.426Z,2.84
2023-01-17T16:27:48.580Z,2.79
2023-01-17T16:30:17.902Z,2.78
2023-01-17T16:32:49.108Z,2.69
2023-01-17T16:35:23.557Z,2.74
2023-01-17T16:37:51.681Z,2.72
2023-01-17T16:40:20.223Z,2.73
2023-01-17T16:42:47.565Z,2.62
2023-01-17T16:45:14.890Z,2.66
2023-01-17T16:47:42.384Z,2.57
2023-01-17T16:50:10.415Z,2.57
2023-01-17T16:52:37.193Z,2.58
2023-01-17T16:55:07.981Z,2.53
2023-01-17T16:57:34.814Z,2.52
2023-01-17T17:00:01.443Z,2.53
2023-01-17T17:02:27.945Z,2.50
2023-01-17T17:04:55.035Z,2.46
2023-01-17T17:07:21.785Z,2.63
2023-01-17T17:09:48.501Z,2.58
2023-01-17T17:12:15.183Z,2.54
2023-01-17T17:14:41.624Z,2.59
2023-01-17T17:17:08.217Z,2.52
2023-01-17T17:19:34.949Z,2.44
2023-01-17T17:22:06.529Z,2.38
2023-01-17T17:24:33.380Z,2.33
2023-01-17T17:27:00.411Z,2.26
2023-01-17T17:29:27.001Z,2.26
2023-01-17T17:31:53.966Z,2.22
2023-01-17T17:34:22.563Z,2.17
2023-01-17T17:36:49.119Z,2.17
2023-01-17T17:39:15.870Z,2.22
2023-01-17T17:41:43.984Z,2.15
2023-01-17T17:44:10.541Z,2.15
2023-01-17T17:46:37.471Z,1.97
2023-01-17T17:49:05.882Z,2.00
2023-01-17T17:51:35.663Z,1.94
2023-01-17T17:54:04.945Z,1.88
2023-01-17T17:56:32.935Z,1.75
2023-01-17T17:59:00.306Z,1.71
2023-01-17T18:01:27.240Z,1.66
2023-01-17T18:03:56.862Z,1.80
2023-01-17T18:06:24.057Z,1.79
2023-01-17T18:08:52.006Z,1.78
2023-01-17T18:11:22.611Z,1.77
2023-01-17T18:13:50.982Z,1.75
2023-01-17T18:16:21.548Z,1.74
2023-01-17T18:18:50.947Z,1.70
2023-01-17T18:21:25.617Z,1.64
2023-01-17T18:23:54.857Z,1.59
2023-01-17T18:26:36.400Z,1.62
2023-01-17T18:29:05.551Z,1.70
2023-01-17T18:31:32.786Z,1.67
2023-01-17T18:34:03.929Z,1.68
2023-01-17T18:36:31.254Z,1.72
2023-01-17T18:38:58.107Z,1.65
2023-01-17T18:41:26.980Z,1.67
2023-01-17T18:43:53.755Z,1.74
2023-01-17T18:46:20.586Z,1.71
2023-01-17T18:48:47.135Z,1.70
2023-01-17T18:51:16.057Z,1.60
2023-01-17T18:53:44.646Z,1.41
2023-01-17T18:56:14.146Z,1.45
2023-01-17T18:58:45.471Z,1.48
2023-01-17T19:01:17.182Z,1.44
2023-01-17T19:03:45.706Z,1.45
2023-01-17T19:06:15.689Z,1.34
2023-01-17T19:08:42.527Z,1.31
2023-01-17T19:11:09.810Z,1.37
2023-01-17T19:13:37.436Z,1.29
2023-01-17T19:16:06.874Z,1.25
2023-01-17T19:18:33.746Z,1.26
2023-01-17T19:21:05.615Z,1.26
2023-01-17T19:23:33.387Z,1.25
2023-01-17T19:26:00.269Z,1.32
2023-01-17T19:28:29.010Z,1.26
2023-01-17T19:31:07.727Z,1.28
2023-01-17T19:33:37.728Z,1.32
2023-01-17T19:36:06.460Z,1.23
2023-01-17T19:38:37.426Z,1.23
2023-01-17T19:41:11.782Z,1.24
2023-01-17T19:43:40.067Z,1.19
2023-01-17T19:46:10.093Z,1.22
2023-01-17T19:48:38.170Z,1.15
2023-01-17T19:51:12.948Z,1.17
2023-01-17T19:53:40.629Z,1.17
2023-01-17T19:56:11.983Z,1.16
2023-01-17T19:58:39.544Z,1.10
2023-01-17T20:01:11.760Z,1.13
2023-01-17T20:03:38.748Z,1.17
2023-01-17T20:06:17.485Z,1.18
2023-01-17T20:08:44.824Z,1.13
2023-01-17T20:11:14.703Z,1.06
2023-01-17T20:13:44.636Z,1.11
2023-01-17T20:16:13.659Z,1.00
2023-01-17T20:18:40.509Z,0.94
2023-01-17T20:21:09.925Z,0.88
2023-01-17T20:23:43.044Z,0.83
2023-01-17T20:26:11.157Z,0.84
2023-01-17T20:28:39.431Z,0.79
2023-01-17T20:31:14.086Z,0.83
2023-01-17T20:33:43.511Z,0.88
2023-01-17T20:36:14.985Z,0.74
2023-01-17T20:38:45.464Z,0.71
2023-01-17T20:41:20.168Z,0.68
2023-01-17T20:43:48.886Z,0.72
2023-01-17T20:46:16.037Z,0.70
2023-01-17T20:48:46.913Z,0.61
2023-01-17T20:51:14.456Z,0.61
2023-01-17T20:53:43.953Z,0.58
2023-01-17T20:56:12.273Z,0.57
2023-01-17T20:58:38.918Z,0.64
2023-01-17T21:01:06.298Z,0.49
2023-01-17T21:03:34.574Z,0.36
2023-01-17T21:06:06.054Z,0.32
2023-01-17T21:08:34.612Z,0.25
2023-01-17T21:11:01.369Z,0.29
2023-01-17T21:13:28.081Z,0.26
2023-01-17T21:15:54.772Z,0.20
2023-01-17T21:18:22.762Z,0.33
2023-01-17T21:20:49.526Z,0.32
2023-01-17T21:23:18.885Z,0.35
2023-01-17T21:25:55.928Z,0.28
2023-01-17T21:28:24.425Z,0.25
2023-01-17T21:30:51.617Z,0.16
2023-01-17T21:33:22.176Z,0.19
2023-01-17T21:35:48.947Z,0.14
2023-01-17T21:38:15.613Z,0.12
2023-01-17T21:40:43.310Z,0.05
2023-01-17T21:43:10.223Z,0.06
2023-01-17T21:45:40.668Z,0.01
2023-01-17T21:48:12.031Z,0.05
2023-01-17T21:50:39.222Z,-0.03
2023-01-17T21:53:05.932Z,0.01
2023-01-17T21:55:51.168Z,0.08
2023-01-17T21:58:36.821Z,0.05
2023-01-17T22:01:22.141Z,0.19
2023-01-17T22:03:50.418Z,0.22
2023-01-17T22:06:17.637Z,0.26
2023-01-17T22:08:44.123Z,0.23
2023-01-17T22:11:16.017Z,0.25
2023-01-17T22:13:44.135Z,0.25
2023-01-17T22:16:13.669Z,0.32
2023-01-17T22:18:41.432Z,0.31
2023-01-17T22:21:12.470Z,0.33
2023-01-17T22:23:40.158Z,0.28
2023-01-17T22:26:11.949Z,0.31
2023-01-17T22:28:39.580Z,0.25
2023-01-17T22:31:10.949Z,0.22
2023-01-17T22:33:38.217Z,0.31
2023-01-17T22:36:05.797Z,0.34
2023-01-17T22:38:33.528Z,0.49
2023-01-17T22:41:08.104Z,0.48
2023-01-17T22:43:39.757Z,0.57
2023-01-17T22:46:07.761Z,0.44
2023-01-17T22:48:34.756Z,0.45
2023-01-17T22:51:02.575Z,0.48
2023-01-17T22:53:29.357Z,0.43
2023-01-17T22:56:16.022Z,0.51
2023-01-17T22:58:44.926Z,0.46
2023-01-17T23:01:13.799Z,0.54
2023-01-17T23:03:41.124Z,0.62
2023-01-17T23:06:14.452Z,0.59
2023-01-17T23:08:43.616Z,0.53
2023-01-17T23:11:39.768Z,0.51
2023-01-17T23:14:11.779Z,0.64
2023-01-17T23:16:58.886Z,0.67
2023-01-17T23:19:26.931Z,0.65
2023-01-17T23:22:15.185Z,0.70
2023-01-17T23:24:43.686Z,0.78
2023-01-17T23:27:30.353Z,0.79
2023-01-17T23:29:56.889Z,0.76
2023-01-17T23:32:23.500Z,0.84
2023-01-17T23:34:50.282Z,0.84
2023-01-17T23:37:16.896Z,0.79
2023-01-17T23:39:43.393Z,0.83
2023-01-17T23:42:28.623Z,0.74
2023-01-17T23:44:55.081Z,0.74
2023-01-17T23:47:21.591Z,0.70
2023-01-17T23:49:51.144Z,0.72
2023-01-17T23:52:17.654Z,0.83
2023-01-17T23:54:44.105Z,0.81
2023-01-17T23:57:10.647Z,0.89
2023-01-17T23:59:37.150Z,0.97
